sensor_id;sensor_type;location;lat;lon;timestamp;P1;durP1;ratioP1;P2;durP2;ratioP2
39022;SDS011;25908;51.984;5.928;2022-10-17T00:01:47;12.75;;;7.13;;
39022;SDS011;25908;51.984;5.928;2022-10-17T00:04:13;9.95;;;6.53;;
39022;SDS011;25908;51.984;5.928;2022-10-17T00:06:39;9.38;;;6.93;;
39022;SDS011;25908;51.984;5.928;2022-10-17T00:09:04;12.13;;;6.10;;
39022;SDS011;25908;51.984;5.928;2022-10-17T00:11:30;8.98;;;6.45;;
39022;SDS011;25908;51.984;5.928;2022-10-17T00:13:55;9.48;;;7.25;;
39022;SDS011;25908;51.984;5.928;2022-10-17T00:16:22;9.20;;;6.93;;
39022;SDS011;25908;51.984;5.928;2022-10-17T00:21:18;7.85;;;6.40;;
39022;SDS011;25908;51.984;5.928;2022-10-17T00:23:45;9.45;;;6.40;;
39022;SDS011;25908;51.984;5.928;2022-10-17T00:26:11;9.05;;;7.00;;
39022;SDS011;25908;51.984;5.928;2022-10-17T00:28:37;10.00;;;6.85;;
39022;SDS011;25908;51.984;5.928;2022-10-17T00:31:03;9.60;;;7.00;;
39022;SDS011;25908;51.984;5.928;2022-10-17T00:33:30;10.93;;;7.55;;
39022;SDS011;25908;51.984;5.928;2022-10-17T00:38:33;11.15;;;7.72;;
39022;SDS011;25908;51.984;5.928;2022-10-17T00:41:00;12.18;;;7.13;;
39022;SDS011;25908;51.984;5.928;2022-10-17T00:43:27;9.55;;;6.82;;
39022;SDS011;25908;51.984;5.928;2022-10-17T00:45:53;10.98;;;7.75;;
39022;SDS011;25908;51.984;5.928;2022-10-17T00:48:19;12.00;;;8.02;;
39022;SDS011;25908;51.984;5.928;2022-10-17T00:50:47;14.35;;;9.05;;
39022;SDS011;25908;51.984;5.928;2022-10-17T00:53:14;10.82;;;8.55;;
39022;SDS011;25908;51.984;5.928;2022-10-17T00:55:46;10.55;;;7.88;;
39022;SDS011;25908;51.984;5.928;2022-10-17T00:58:14;10.40;;;8.32;;
39022;SDS011;25908;51.984;5.928;2022-10-17T01:00:41;14.30;;;7.65;;
39022;SDS011;25908;51.984;5.928;2022-10-17T01:03:07;11.20;;;8.27;;
39022;SDS011;25908;51.984;5.928;2022-10-17T01:05:33;13.52;;;8.65;;
39022;SDS011;25908;51.984;5.928;2022-10-17T01:07:59;11.57;;;8.05;;
39022;SDS011;25908;51.984;5.928;2022-10-17T01:10:32;12.57;;;8.98;;
39022;SDS011;25908;51.984;5.928;2022-10-17T01:13:10;11.75;;;7.75;;
39022;SDS011;25908;51.984;5.928;2022-10-17T01:15:55;10.68;;;8.15;;
39022;SDS011;25908;51.984;5.928;2022-10-17T01:21:14;13.50;;;8.77;;
39022;SDS011;25908;51.984;5.928;2022-10-17T01:32:08;12.10;;;8.77;;
39022;SDS011;25908;51.984;5.928;2022-10-17T01:34:45;13.37;;;8.70;;
39022;SDS011;25908;51.984;5.928;2022-10-17T01:37:25;13.00;;;8.27;;
39022;SDS011;25908;51.984;5.928;2022-10-17T01:40:02;11.70;;;8.82;;
39022;SDS011;25908;51.984;5.928;2022-10-17T01:43:00;9.70;;;8.18;;
39022;SDS011;25908;51.984;5.928;2022-10-17T01:48:33;15.38;;;8.98;;
39022;SDS011;25908;51.984;5.928;2022-10-17T01:51:45;9.70;;;8.30;;
39022;SDS011;25908;51.984;5.928;2022-10-17T01:57:33;15.13;;;8.88;;
39022;SDS011;25908;51.984;5.928;2022-10-17T02:00:04;10.43;;;8.50;;
39022;SDS011;25908;51.984;5.928;2022-10-17T02:02:32;10.98;;;7.45;;
39022;SDS011;25908;51.984;5.928;2022-10-17T02:04:59;8.93;;;7.15;;
39022;SDS011;25908;51.984;5.928;2022-10-17T02:07:27;11.32;;;8.52;;
39022;SDS011;25908;51.984;5.928;2022-10-17T02:09:53;9.32;;;7.32;;
39022;SDS011;25908;51.984;5.928;2022-10-17T02:20:24;10.53;;;8.00;;
39022;SDS011;25908;51.984;5.928;2022-10-17T02:23:02;8.63;;;7.60;;
39022;SDS011;25908;51.984;5.928;2022-10-17T02:28:36;12.52;;;7.68;;
39022;SDS011;25908;51.984;5.928;2022-10-17T02:31:16;11.48;;;7.55;;
39022;SDS011;25908;51.984;5.928;2022-10-17T02:34:03;10.05;;;7.85;;
39022;SDS011;25908;51.984;5.928;2022-10-17T02:36:42;9.80;;;7.57;;
39022;SDS011;25908;51.984;5.928;2022-10-17T02:39:11;10.18;;;7.57;;
39022;SDS011;25908;51.984;5.928;2022-10-17T02:41:39;9.52;;;7.15;;
39022;SDS011;25908;51.984;5.928;2022-10-17T02:44:05;9.55;;;7.28;;
39022;SDS011;25908;51.984;5.928;2022-10-17T02:46:32;9.30;;;7.32;;
39022;SDS011;25908;51.984;5.928;2022-10-17T02:49:06;12.05;;;7.45;;
39022;SDS011;25908;51.984;5.928;2022-10-17T02:51:48;11.45;;;8.10;;
39022;SDS011;25908;51.984;5.928;2022-10-17T02:54:23;9.63;;;7.57;;
39022;SDS011;25908;51.984;5.928;2022-10-17T02:56:58;11.13;;;7.40;;
39022;SDS011;25908;51.984;5.928;2022-10-17T02:59:29;13.38;;;8.38;;
39022;SDS011;25908;51.984;5.928;2022-10-17T03:02:01;10.07;;;7.88;;
39022;SDS011;25908;51.984;5.928;2022-10-17T03:04:28;9.68;;;7.43;;
39022;SDS011;25908;51.984;5.928;2022-10-17T03:06:53;9.85;;;7.57;;
39022;SDS011;25908;51.984;5.928;2022-10-17T03:09:19;9.52;;;7.97;;
39022;SDS011;25908;51.984;5.928;2022-10-17T03:11:45;9.82;;;7.28;;
39022;SDS011;25908;51.984;5.928;2022-10-17T03:14:10;11.77;;;8.20;;
39022;SDS011;25908;51.984;5.928;2022-10-17T03:16:36;10.38;;;8.20;;
39022;SDS011;25908;51.984;5.928;2022-10-17T03:19:01;10.57;;;8.30;;
39022;SDS011;25908;51.984;5.928;2022-10-17T03:21:27;13.20;;;8.27;;
39022;SDS011;25908;51.984;5.928;2022-10-17T03:23:53;10.45;;;8.10;;
39022;SDS011;25908;51.984;5.928;2022-10-17T03:26:18;9.77;;;7.72;;
39022;SDS011;25908;51.984;5.928;2022-10-17T03:28:44;10.95;;;7.75;;
39022;SDS011;25908;51.984;5.928;2022-10-17T03:31:11;9.68;;;7.80;;
39022;SDS011;25908;51.984;5.928;2022-10-17T03:33:39;10.65;;;8.35;;
39022;SDS011;25908;51.984;5.928;2022-10-17T03:36:06;9.30;;;7.95;;
39022;SDS011;25908;51.984;5.928;2022-10-17T03:38:33;9.10;;;7.65;;
39022;SDS011;25908;51.984;5.928;2022-10-17T03:40:59;10.30;;;7.88;;
39022;SDS011;25908;51.984;5.928;2022-10-17T03:43:24;10.65;;;8.52;;
39022;SDS011;25908;51.984;5.928;2022-10-17T03:45:50;9.55;;;7.93;;
39022;SDS011;25908;51.984;5.928;2022-10-17T03:48:15;10.50;;;7.57;;
39022;SDS011;25908;51.984;5.928;2022-10-17T03:50:41;9.50;;;7.82;;
39022;SDS011;25908;51.984;5.928;2022-10-17T03:53:06;8.70;;;7.40;;
39022;SDS011;25908;51.984;5.928;2022-10-17T03:55:32;9.60;;;7.85;;
39022;SDS011;25908;51.984;5.928;2022-10-17T03:57:57;9.93;;;7.40;;
39022;SDS011;25908;51.984;5.928;2022-10-17T04:00:23;9.70;;;7.95;;
39022;SDS011;25908;51.984;5.928;2022-10-17T04:02:49;11.82;;;7.72;;
39022;SDS011;25908;51.984;5.928;2022-10-17T04:05:15;9.20;;;7.75;;
39022;SDS011;25908;51.984;5.928;2022-10-17T04:07:40;9.20;;;7.57;;
39022;SDS011;25908;51.984;5.928;2022-10-17T04:10:06;10.25;;;7.90;;
39022;SDS011;25908;51.984;5.928;2022-10-17T04:12:32;9.57;;;7.30;;
39022;SDS011;25908;51.984;5.928;2022-10-17T04:14:57;9.32;;;7.30;;
39022;SDS011;25908;51.984;5.928;2022-10-17T04:17:23;8.93;;;7.57;;
39022;SDS011;25908;51.984;5.928;2022-10-17T04:19:49;10.93;;;7.60;;
39022;SDS011;25908;51.984;5.928;2022-10-17T04:22:14;10.32;;;7.45;;
39022;SDS011;25908;51.984;5.928;2022-10-17T04:24:40;10.35;;;7.30;;
39022;SDS011;25908;51.984;5.928;2022-10-17T04:27:05;9.27;;;7.45;;
39022;SDS011;25908;51.984;5.928;2022-10-17T04:29:31;8.98;;;7.40;;
39022;SDS011;25908;51.984;5.928;2022-10-17T04:31:56;10.25;;;7.05;;
39022;SDS011;25908;51.984;5.928;2022-10-17T04:34:22;10.73;;;7.65;;
39022;SDS011;25908;51.984;5.928;2022-10-17T04:36:48;8.68;;;7.57;;
39022;SDS011;25908;51.984;5.928;2022-10-17T04:39:15;9.05;;;7.88;;
39022;SDS011;25908;51.984;5.928;2022-10-17T04:41:41;10.60;;;7.43;;
39022;SDS011;25908;51.984;5.928;2022-10-17T04:44:06;9.48;;;7.32;;
39022;SDS011;25908;51.984;5.928;2022-10-17T04:46:33;9.35;;;6.95;;
39022;SDS011;25908;51.984;5.928;2022-10-17T04:48:59;8.98;;;6.68;;
39022;SDS011;25908;51.984;5.928;2022-10-17T04:51:25;8.52;;;6.95;;
39022;SDS011;25908;51.984;5.928;2022-10-17T04:53:50;11.98;;;7.78;;
39022;SDS011;25908;51.984;5.928;2022-10-17T04:56:18;8.45;;;7.13;;
39022;SDS011;25908;51.984;5.928;2022-10-17T04:58:45;10.02;;;7.00;;
39022;SDS011;25908;51.984;5.928;2022-10-17T05:01:15;8.77;;;7.63;;
39022;SDS011;25908;51.984;5.928;2022-10-17T05:03:43;7.70;;;6.60;;
39022;SDS011;25908;51.984;5.928;2022-10-17T05:06:09;9.55;;;7.07;;
39022;SDS011;25908;51.984;5.928;2022-10-17T05:08:37;8.40;;;6.70;;
39022;SDS011;25908;51.984;5.928;2022-10-17T05:11:03;9.15;;;6.28;;
39022;SDS011;25908;51.984;5.928;2022-10-17T05:13:30;10.18;;;6.97;;
39022;SDS011;25908;51.984;5.928;2022-10-17T05:15:57;11.23;;;7.70;;
39022;SDS011;25908;51.984;5.928;2022-10-17T05:18:24;13.00;;;8.10;;
39022;SDS011;25908;51.984;5.928;2022-10-17T05:20:49;12.52;;;6.93;;
39022;SDS011;25908;51.984;5.928;2022-10-17T05:23:15;9.05;;;7.10;;
39022;SDS011;25908;51.984;5.928;2022-10-17T05:25:40;9.00;;;6.93;;
39022;SDS011;25908;51.984;5.928;2022-10-17T05:28:06;9.80;;;7.38;;
39022;SDS011;25908;51.984;5.928;2022-10-17T05:30:31;10.07;;;6.53;;
39022;SDS011;25908;51.984;5.928;2022-10-17T05:32:58;7.97;;;6.72;;
39022;SDS011;25908;51.984;5.928;2022-10-17T05:35:24;10.15;;;6.47;;
39022;SDS011;25908;51.984;5.928;2022-10-17T05:37:49;9.25;;;7.00;;
39022;SDS011;25908;51.984;5.928;2022-10-17T05:40:15;8.73;;;6.72;;
39022;SDS011;25908;51.984;5.928;2022-10-17T05:42:44;12.20;;;6.55;;
39022;SDS011;25908;51.984;5.928;2022-10-17T05:45:13;9.18;;;6.82;;
39022;SDS011;25908;51.984;5.928;2022-10-17T05:47:39;12.23;;;7.03;;
39022;SDS011;25908;51.984;5.928;2022-10-17T05:50:06;9.80;;;6.80;;
39022;SDS011;25908;51.984;5.928;2022-10-17T05:52:32;8.98;;;6.75;;
39022;SDS011;25908;51.984;5.928;2022-10-17T05:54:58;8.00;;;6.50;;
39022;SDS011;25908;51.984;5.928;2022-10-17T05:57:26;10.43;;;6.78;;
39022;SDS011;25908;51.984;5.928;2022-10-17T05:59:52;7.65;;;6.07;;
39022;SDS011;25908;51.984;5.928;2022-10-17T06:02:17;9.40;;;6.72;;
39022;SDS011;25908;51.984;5.928;2022-10-17T06:04:43;10.82;;;7.20;;
39022;SDS011;25908;51.984;5.928;2022-10-17T06:07:13;9.25;;;7.47;;
39022;SDS011;25908;51.984;5.928;2022-10-17T06:09:39;10.32;;;6.68;;
39022;SDS011;25908;51.984;5.928;2022-10-17T06:12:05;9.18;;;7.00;;
39022;SDS011;25908;51.984;5.928;2022-10-17T06:14:31;11.15;;;6.93;;
39022;SDS011;25908;51.984;5.928;2022-10-17T06:16:57;11.70;;;7.13;;
39022;SDS011;25908;51.984;5.928;2022-10-17T06:19:23;7.57;;;6.38;;
39022;SDS011;25908;51.984;5.928;2022-10-17T06:21:49;12.25;;;7.40;;
39022;SDS011;25908;51.984;5.928;2022-10-17T06:24:14;9.13;;;7.00;;
39022;SDS011;25908;51.984;5.928;2022-10-17T06:26:40;8.27;;;6.65;;
39022;SDS011;25908;51.984;5.928;2022-10-17T06:29:06;10.60;;;6.40;;
39022;SDS011;25908;51.984;5.928;2022-10-17T06:31:32;14.85;;;7.20;;
39022;SDS011;25908;51.984;5.928;2022-10-17T06:33:57;10.27;;;6.65;;
39022;SDS011;25908;51.984;5.928;2022-10-17T06:36:23;10.30;;;6.63;;
39022;SDS011;25908;51.984;5.928;2022-10-17T06:38:48;8.45;;;6.45;;
39022;SDS011;25908;51.984;5.928;2022-10-17T06:41:14;12.32;;;7.32;;
39022;SDS011;25908;51.984;5.928;2022-10-17T06:43:43;8.55;;;7.32;;
39022;SDS011;25908;51.984;5.928;2022-10-17T06:46:12;8.98;;;6.82;;
39022;SDS011;25908;51.984;5.928;2022-10-17T06:48:39;9.15;;;7.28;;
39022;SDS011;25908;51.984;5.928;2022-10-17T06:51:05;10.02;;;6.85;;
39022;SDS011;25908;51.984;5.928;2022-10-17T06:53:33;11.10;;;8.00;;
39022;SDS011;25908;51.984;5.928;2022-10-17T06:56:00;8.43;;;6.82;;
39022;SDS011;25908;51.984;5.928;2022-10-17T06:58:28;11.75;;;7.93;;
39022;SDS011;25908;51.984;5.928;2022-10-17T07:00:58;9.48;;;7.70;;
39022;SDS011;25908;51.984;5.928;2022-10-17T07:03:28;9.57;;;7.65;;
39022;SDS011;25908;51.984;5.928;2022-10-17T07:05:55;12.40;;;8.30;;
39022;SDS011;25908;51.984;5.928;2022-10-17T07:08:21;9.40;;;8.05;;
39022;SDS011;25908;51.984;5.928;2022-10-17T07:10:47;10.20;;;7.60;;
39022;SDS011;25908;51.984;5.928;2022-10-17T07:13:13;9.52;;;8.18;;
39022;SDS011;25908;51.984;5.928;2022-10-17T07:15:39;11.32;;;7.90;;
39022;SDS011;25908;51.984;5.928;2022-10-17T07:18:05;9.40;;;8.35;;
39022;SDS011;25908;51.984;5.928;2022-10-17T07:20:31;9.57;;;7.82;;
39022;SDS011;25908;51.984;5.928;2022-10-17T07:22:57;9.00;;;7.88;;
39022;SDS011;25908;51.984;5.928;2022-10-17T07:25:23;9.23;;;8.15;;
39022;SDS011;25908;51.984;5.928;2022-10-17T07:27:49;10.73;;;8.85;;
39022;SDS011;25908;51.984;5.928;2022-10-17T07:30:15;15.13;;;11.25;;
39022;SDS011;25908;51.984;5.928;2022-10-17T07:32:41;20.98;;;15.13;;
39022;SDS011;25908;51.984;5.928;2022-10-17T07:35:07;15.05;;;13.23;;
39022;SDS011;25908;51.984;5.928;2022-10-17T07:37:34;16.35;;;12.60;;
39022;SDS011;25908;51.984;5.928;2022-10-17T07:40:00;14.57;;;11.15;;
39022;SDS011;25908;51.984;5.928;2022-10-17T07:42:26;14.45;;;12.15;;
39022;SDS011;25908;51.984;5.928;2022-10-17T07:44:52;15.15;;;12.15;;
39022;SDS011;25908;51.984;5.928;2022-10-17T07:47:18;17.23;;;13.80;;
39022;SDS011;25908;51.984;5.928;2022-10-17T07:49:44;16.70;;;12.80;;
39022;SDS011;25908;51.984;5.928;2022-10-17T07:52:10;18.08;;;14.70;;
39022;SDS011;25908;51.984;5.928;2022-10-17T07:54:37;16.63;;;13.70;;
39022;SDS011;25908;51.984;5.928;2022-10-17T07:57:03;15.88;;;13.25;;
39022;SDS011;25908;51.984;5.928;2022-10-17T07:59:29;15.13;;;12.93;;
39022;SDS011;25908;51.984;5.928;2022-10-17T08:01:55;17.90;;;12.98;;
39022;SDS011;25908;51.984;5.928;2022-10-17T08:04:20;14.60;;;12.18;;
39022;SDS011;25908;51.984;5.928;2022-10-17T08:06:47;18.27;;;13.48;;
39022;SDS011;25908;51.984;5.928;2022-10-17T08:09:13;15.40;;;12.68;;
39022;SDS011;25908;51.984;5.928;2022-10-17T08:11:38;13.75;;;11.88;;
39022;SDS011;25908;51.984;5.928;2022-10-17T08:14:04;16.73;;;13.35;;
39022;SDS011;25908;51.984;5.928;2022-10-17T08:16:30;15.93;;;12.38;;
39022;SDS011;25908;51.984;5.928;2022-10-17T08:18:56;13.70;;;12.10;;
39022;SDS011;25908;51.984;5.928;2022-10-17T08:21:21;16.73;;;12.63;;
39022;SDS011;25908;51.984;5.928;2022-10-17T08:23:47;19.50;;;13.23;;
39022;SDS011;25908;51.984;5.928;2022-10-17T08:26:12;15.48;;;12.07;;
39022;SDS011;25908;51.984;5.928;2022-10-17T08:28:41;18.17;;;11.15;;
39022;SDS011;25908;51.984;5.928;2022-10-17T08:31:08;17.85;;;11.65;;
39022;SDS011;25908;51.984;5.928;2022-10-17T08:33:35;18.85;;;10.60;;
39022;SDS011;25908;51.984;5.928;2022-10-17T08:36:02;14.55;;;9.43;;
39022;SDS011;25908;51.984;5.928;2022-10-17T08:38:28;13.23;;;9.82;;
39022;SDS011;25908;51.984;5.928;2022-10-17T08:40:56;17.60;;;10.10;;
39022;SDS011;25908;51.984;5.928;2022-10-17T08:45:57;13.27;;;9.48;;
39022;SDS011;25908;51.984;5.928;2022-10-17T08:48:27;15.57;;;10.70;;
39022;SDS011;25908;51.984;5.928;2022-10-17T08:50:57;13.88;;;10.70;;
39022;SDS011;25908;51.984;5.928;2022-10-17T08:53:39;16.25;;;12.15;;
39022;SDS011;25908;51.984;5.928;2022-10-17T08:56:17;15.60;;;11.80;;
39022;SDS011;25908;51.984;5.928;2022-10-17T08:58:48;18.30;;;11.32;;
39022;SDS011;25908;51.984;5.928;2022-10-17T09:09:43;14.85;;;11.18;;
39022;SDS011;25908;51.984;5.928;2022-10-17T09:20:22;14.50;;;11.10;;
39022;SDS011;25908;51.984;5.928;2022-10-17T09:22:58;14.68;;;11.10;;
39022;SDS011;25908;51.984;5.928;2022-10-17T09:25:27;13.93;;;9.52;;
39022;SDS011;25908;51.984;5.928;2022-10-17T09:30:58;15.82;;;10.95;;
39022;SDS011;25908;51.984;5.928;2022-10-17T09:33:37;16.50;;;10.10;;
39022;SDS011;25908;51.984;5.928;2022-10-17T09:39:11;14.48;;;9.50;;
39022;SDS011;25908;51.984;5.928;2022-10-17T09:41:43;14.13;;;10.07;;
39022;SDS011;25908;51.984;5.928;2022-10-17T09:49:30;12.90;;;9.85;;
39022;SDS011;25908;51.984;5.928;2022-10-17T09:52:02;14.90;;;10.13;;
39022;SDS011;25908;51.984;5.928;2022-10-17T09:57:09;17.65;;;10.70;;
39022;SDS011;25908;51.984;5.928;2022-10-17T09:59:37;13.27;;;9.10;;
39022;SDS011;25908;51.984;5.928;2022-10-17T10:04:34;15.27;;;9.85;;
39022;SDS011;25908;51.984;5.928;2022-10-17T10:07:03;11.75;;;8.73;;
39022;SDS011;25908;51.984;5.928;2022-10-17T10:09:31;13.70;;;8.10;;
39022;SDS011;25908;51.984;5.928;2022-10-17T10:12:00;11.52;;;8.15;;
39022;SDS011;25908;51.984;5.928;2022-10-17T10:14:32;10.73;;;8.05;;
39022;SDS011;25908;51.984;5.928;2022-10-17T10:17:00;15.50;;;9.10;;
39022;SDS011;25908;51.984;5.928;2022-10-17T10:19:29;12.52;;;8.60;;
39022;SDS011;25908;51.984;5.928;2022-10-17T10:21:58;15.40;;;9.88;;
39022;SDS011;25908;51.984;5.928;2022-10-17T10:24:25;10.02;;;8.35;;
39022;SDS011;25908;51.984;5.928;2022-10-17T10:26:51;12.98;;;8.48;;
39022;SDS011;25908;51.984;5.928;2022-10-17T10:37:32;20.67;;;14.85;;
39022;SDS011;25908;51.984;5.928;2022-10-17T10:40:05;15.85;;;12.23;;
39022;SDS011;25908;51.984;5.928;2022-10-17T10:42:39;87.57;;;48.80;;
39022;SDS011;25908;51.984;5.928;2022-10-17T10:45:19;34.83;;;23.83;;
39022;SDS011;25908;51.984;5.928;2022-10-17T10:47:57;20.35;;;14.57;;
39022;SDS011;25908;51.984;5.928;2022-10-17T10:50:31;13.13;;;10.37;;
39022;SDS011;25908;51.984;5.928;2022-10-17T10:56:16;14.88;;;10.25;;
39022;SDS011;25908;51.984;5.928;2022-10-17T11:02:09;13.85;;;9.25;;
39022;SDS011;25908;51.984;5.928;2022-10-17T11:04:40;13.20;;;11.60;;
39022;SDS011;25908;51.984;5.928;2022-10-17T11:09:57;12.13;;;9.30;;
39022;SDS011;25908;51.984;5.928;2022-10-17T11:12:58;13.73;;;9.10;;
39022;SDS011;25908;51.984;5.928;2022-10-17T11:26:48;12.25;;;8.77;;
39022;SDS011;25908;51.984;5.928;2022-10-17T11:29:31;14.75;;;9.68;;
39022;SDS011;25908;51.984;5.928;2022-10-17T11:32:07;11.63;;;8.55;;
39022;SDS011;25908;51.984;5.928;2022-10-17T11:34:46;11.02;;;8.75;;
39022;SDS011;25908;51.984;5.928;2022-10-17T11:37:25;10.80;;;7.95;;
39022;SDS011;25908;51.984;5.928;2022-10-17T11:40:02;11.02;;;9.32;;
39022;SDS011;25908;51.984;5.928;2022-10-17T11:42:37;10.43;;;8.23;;
39022;SDS011;25908;51.984;5.928;2022-10-17T11:45:17;13.00;;;8.65;;
39022;SDS011;25908;51.984;5.928;2022-10-17T11:47:49;14.07;;;8.45;;
39022;SDS011;25908;51.984;5.928;2022-10-17T11:52:49;11.75;;;9.18;;
39022;SDS011;25908;51.984;5.928;2022-10-17T11:55:22;12.07;;;8.80;;
39022;SDS011;25908;51.984;5.928;2022-10-17T12:09:36;13.00;;;9.88;;
39022;SDS011;25908;51.984;5.928;2022-10-17T12:12:22;12.63;;;8.82;;
39022;SDS011;25908;51.984;5.928;2022-10-17T12:15:25;15.25;;;11.98;;
39022;SDS011;25908;51.984;5.928;2022-10-17T12:18:10;16.77;;;12.65;;
39022;SDS011;25908;51.984;5.928;2022-10-17T12:20:40;14.10;;;11.10;;
39022;SDS011;25908;51.984;5.928;2022-10-17T12:25:46;14.00;;;11.35;;
39022;SDS011;25908;51.984;5.928;2022-10-17T12:28:13;29.63;;;21.55;;
39022;SDS011;25908;51.984;5.928;2022-10-17T12:30:50;16.27;;;12.23;;
39022;SDS011;25908;51.984;5.928;2022-10-17T12:33:38;12.23;;;10.35;;
39022;SDS011;25908;51.984;5.928;2022-10-17T12:41:51;15.38;;;10.25;;
39022;SDS011;25908;51.984;5.928;2022-10-17T12:47:26;14.57;;;10.65;;
39022;SDS011;25908;51.984;5.928;2022-10-17T12:49:49;15.30;;;11.52;;
39022;SDS011;25908;51.984;5.928;2022-10-17T13:06:11;33.42;;;24.42;;
39022;SDS011;25908;51.984;5.928;2022-10-17T13:08:43;28.38;;;25.02;;
39022;SDS011;25908;51.984;5.928;2022-10-17T13:11:12;20.38;;;18.30;;
39022;SDS011;25908;51.984;5.928;2022-10-17T13:13:44;15.60;;;12.82;;
39022;SDS011;25908;51.984;5.928;2022-10-17T13:18:58;15.52;;;13.35;;
39022;SDS011;25908;51.984;5.928;2022-10-17T13:21:25;14.95;;;12.50;;
39022;SDS011;25908;51.984;5.928;2022-10-17T13:23:51;18.35;;;14.10;;
39022;SDS011;25908;51.984;5.928;2022-10-17T13:31:35;14.60;;;12.93;;
39022;SDS011;25908;51.984;5.928;2022-10-17T13:34:03;18.05;;;14.63;;
39022;SDS011;25908;51.984;5.928;2022-10-17T13:36:30;15.23;;;11.43;;
39022;SDS011;25908;51.984;5.928;2022-10-17T13:38:58;13.38;;;11.98;;
39022;SDS011;25908;51.984;5.928;2022-10-17T13:41:29;14.50;;;12.93;;
39022;SDS011;25908;51.984;5.928;2022-10-17T13:43:59;14.98;;;12.65;;
39022;SDS011;25908;51.984;5.928;2022-10-17T13:46:30;13.68;;;11.23;;
39022;SDS011;25908;51.984;5.928;2022-10-17T13:48:58;12.88;;;11.20;;
39022;SDS011;25908;51.984;5.928;2022-10-17T13:51:33;13.48;;;11.02;;
39022;SDS011;25908;51.984;5.928;2022-10-17T13:53:59;14.43;;;9.63;;
39022;SDS011;25908;51.984;5.928;2022-10-17T13:56:25;11.52;;;9.82;;
39022;SDS011;25908;51.984;5.928;2022-10-17T13:58:53;14.90;;;10.65;;
39022;SDS011;25908;51.984;5.928;2022-10-17T14:01:21;13.30;;;9.48;;
39022;SDS011;25908;51.984;5.928;2022-10-17T14:03:49;12.82;;;10.30;;
39022;SDS011;25908;51.984;5.928;2022-10-17T14:11:43;12.57;;;10.40;;
39022;SDS011;25908;51.984;5.928;2022-10-17T14:14:21;10.85;;;9.75;;
39022;SDS011;25908;51.984;5.928;2022-10-17T14:16:48;18.15;;;14.00;;
39022;SDS011;25908;51.984;5.928;2022-10-17T14:19:22;18.52;;;15.45;;
39022;SDS011;25908;51.984;5.928;2022-10-17T14:21:54;18.23;;;12.27;;
39022;SDS011;25908;51.984;5.928;2022-10-17T14:24:37;14.15;;;10.48;;
39022;SDS011;25908;51.984;5.928;2022-10-17T14:27:23;14.25;;;10.35;;
39022;SDS011;25908;51.984;5.928;2022-10-17T14:29:50;11.25;;;10.10;;
39022;SDS011;25908;51.984;5.928;2022-10-17T14:32:17;10.25;;;9.25;;
39022;SDS011;25908;51.984;5.928;2022-10-17T14:34:44;13.20;;;10.45;;
39022;SDS011;25908;51.984;5.928;2022-10-17T14:39:49;12.68;;;11.30;;
39022;SDS011;25908;51.984;5.928;2022-10-17T14:42:16;15.10;;;11.80;;
39022;SDS011;25908;51.984;5.928;2022-10-17T14:44:46;13.07;;;10.85;;
39022;SDS011;25908;51.984;5.928;2022-10-17T14:47:15;12.27;;;10.95;;
39022;SDS011;25908;51.984;5.928;2022-10-17T14:49:43;14.38;;;12.30;;
39022;SDS011;25908;51.984;5.928;2022-10-17T14:54:40;13.45;;;11.50;;
39022;SDS011;25908;51.984;5.928;2022-10-17T14:57:18;16.17;;;11.85;;
39022;SDS011;25908;51.984;5.928;2022-10-17T14:59:49;13.85;;;11.20;;
39022;SDS011;25908;51.984;5.928;2022-10-17T15:02:15;12.32;;;11.10;;
39022;SDS011;25908;51.984;5.928;2022-10-17T15:04:41;13.18;;;11.60;;
39022;SDS011;25908;51.984;5.928;2022-10-17T15:07:09;14.40;;;11.30;;
39022;SDS011;25908;51.984;5.928;2022-10-17T15:09:41;12.35;;;11.05;;
39022;SDS011;25908;51.984;5.928;2022-10-17T15:12:15;23.90;;;19.92;;
39022;SDS011;25908;51.984;5.928;2022-10-17T15:14:45;21.65;;;19.35;;
39022;SDS011;25908;51.984;5.928;2022-10-17T15:17:13;26.13;;;23.27;;
39022;SDS011;25908;51.984;5.928;2022-10-17T15:19:42;24.50;;;22.00;;
39022;SDS011;25908;51.984;5.928;2022-10-17T15:22:08;28.13;;;25.08;;
39022;SDS011;25908;51.984;5.928;2022-10-17T15:24:33;25.52;;;20.77;;
39022;SDS011;25908;51.984;5.928;2022-10-17T15:26:59;18.90;;;16.88;;
39022;SDS011;25908;51.984;5.928;2022-10-17T15:29:24;19.02;;;15.88;;
39022;SDS011;25908;51.984;5.928;2022-10-17T15:31:50;20.52;;;14.75;;
39022;SDS011;25908;51.984;5.928;2022-10-17T15:34:15;17.92;;;15.45;;
39022;SDS011;25908;51.984;5.928;2022-10-17T15:36:41;18.92;;;15.10;;
39022;SDS011;25908;51.984;5.928;2022-10-17T15:39:13;17.13;;;15.18;;
39022;SDS011;25908;51.984;5.928;2022-10-17T15:41:39;18.30;;;15.60;;
39022;SDS011;25908;51.984;5.928;2022-10-17T15:44:05;21.48;;;18.55;;
39022;SDS011;25908;51.984;5.928;2022-10-17T15:46:33;22.77;;;20.38;;
39022;SDS011;25908;51.984;5.928;2022-10-17T15:49:00;22.00;;;19.70;;
39022;SDS011;25908;51.984;5.928;2022-10-17T15:51:31;19.50;;;17.35;;
39022;SDS011;25908;51.984;5.928;2022-10-17T15:53:57;18.88;;;16.92;;
39022;SDS011;25908;51.984;5.928;2022-10-17T15:56:26;32.58;;;25.23;;
39022;SDS011;25908;51.984;5.928;2022-10-17T15:58:53;107.80;;;63.00;;
39022;SDS011;25908;51.984;5.928;2022-10-17T16:01:26;90.85;;;56.97;;
39022;SDS011;25908;51.984;5.928;2022-10-17T16:03:53;70.38;;;44.97;;
39022;SDS011;25908;51.984;5.928;2022-10-17T16:06:20;61.92;;;41.35;;
39022;SDS011;25908;51.984;5.928;2022-10-17T16:08:46;39.08;;;27.42;;
39022;SDS011;25908;51.984;5.928;2022-10-17T16:11:32;34.55;;;26.90;;
39022;SDS011;25908;51.984;5.928;2022-10-17T16:14:07;39.30;;;32.42;;
39022;SDS011;25908;51.984;5.928;2022-10-17T16:16:35;26.02;;;23.23;;
39022;SDS011;25908;51.984;5.928;2022-10-17T16:19:01;44.53;;;39.92;;
39022;SDS011;25908;51.984;5.928;2022-10-17T16:21:27;37.38;;;32.03;;
39022;SDS011;25908;51.984;5.928;2022-10-17T16:23:55;30.80;;;27.00;;
39022;SDS011;25908;51.984;5.928;2022-10-17T16:26:21;25.13;;;22.63;;
39022;SDS011;25908;51.984;5.928;2022-10-17T16:28:47;22.23;;;20.00;;
39022;SDS011;25908;51.984;5.928;2022-10-17T16:31:17;34.13;;;29.38;;
39022;SDS011;25908;51.984;5.928;2022-10-17T16:33:43;27.05;;;24.25;;
39022;SDS011;25908;51.984;5.928;2022-10-17T16:36:09;25.75;;;23.13;;
39022;SDS011;25908;51.984;5.928;2022-10-17T16:38:34;25.58;;;22.60;;
39022;SDS011;25908;51.984;5.928;2022-10-17T16:41:00;26.33;;;23.55;;
39022;SDS011;25908;51.984;5.928;2022-10-17T16:43:25;23.10;;;20.77;;
39022;SDS011;25908;51.984;5.928;2022-10-17T16:45:51;24.83;;;21.10;;
39022;SDS011;25908;51.984;5.928;2022-10-17T16:48:16;23.75;;;20.00;;
39022;SDS011;25908;51.984;5.928;2022-10-17T16:50:42;22.73;;;20.42;;
39022;SDS011;25908;51.984;5.928;2022-10-17T16:53:08;22.23;;;19.65;;
39022;SDS011;25908;51.984;5.928;2022-10-17T16:55:33;21.95;;;19.80;;
39022;SDS011;25908;51.984;5.928;2022-10-17T16:57:59;26.60;;;23.35;;
39022;SDS011;25908;51.984;5.928;2022-10-17T17:00:25;26.60;;;23.80;;
39022;SDS011;25908;51.984;5.928;2022-10-17T17:02:51;28.55;;;24.88;;
39022;SDS011;25908;51.984;5.928;2022-10-17T17:05:16;29.20;;;26.08;;
39022;SDS011;25908;51.984;5.928;2022-10-17T17:07:42;25.65;;;22.92;;
39022;SDS011;25908;51.984;5.928;2022-10-17T17:10:07;26.13;;;21.67;;
39022;SDS011;25908;51.984;5.928;2022-10-17T17:12:34;24.60;;;21.88;;
39022;SDS011;25908;51.984;5.928;2022-10-17T17:15:00;28.65;;;25.73;;
39022;SDS011;25908;51.984;5.928;2022-10-17T17:17:26;23.70;;;19.95;;